This is the latest recevied weather packets stored in our database for station/object KC2BRB-1. If no packets are shown the sender has not sent any weather packets the latest 10 day(s).
| Time | Temp. | Humidity | Pressure | Rain* | Wind** | Luminosity | Snow |
|---|---|---|---|---|---|---|---|
| 1777317785 | 28.89° C | 64% | 1014.1 hPa | 0 mm | - | - | - |
| 1777317639 | 28.33° C | 64% | 1014.1 hPa | 0 mm | - | - | - |
| 1777317485 | 28.33° C | 64% | 1014.1 hPa | 0 mm | - | - | - |
| 1777317185 | 28.33° C | 64% | 1014.1 hPa | 0 mm | - | - | - |
| 1777317057 | 28.89° C | 62% | 1014 hPa | 0 mm | - | - | - |
| 1777316886 | 28.89° C | 62% | 1014 hPa | 0 mm | - | - | - |
| 1777316585 | 28.89° C | 62% | 1014 hPa | 0 mm | - | - | - |
| 1777316393 | 29.44° C | 58% | 1014 hPa | 0 mm | - | - | - |
| 1777316285 | 29.44° C | 58% | 1014 hPa | 0 mm | - | - | - |
| 1777316217 | 29.44° C | 58% | 1014 hPa | 0 mm | - | - | - |
| 1777315985 | 29.44° C | 58% | 1014 hPa | 0 mm | - | - | - |
| 1777315686 | 29.44° C | 62% | 1014 hPa | 0 mm | - | - | - |
| 1777315387 | 29.44° C | 62% | 1014 hPa | 0 mm | - | - | - |
| 1777315218 | 28.33° C | 64% | 1014 hPa | 0 mm | - | - | - |
| 1777315085 | 28.33° C | 64% | 1014 hPa | 0 mm | - | - | - |
| 1777314986 | 28.33° C | 64% | 1014 hPa | 0 mm | - | - | - |
| 1777314785 | 28.33° C | 64% | 1014 hPa | 0 mm | - | - | - |
| 1777314681 | 29.44° C | 61% | 1014.2 hPa | 0 mm | - | - | - |
| 1777314486 | 29.44° C | 61% | 1014.2 hPa | 0 mm | - | - | - |
| 1777314341 | 29.44° C | 61% | 1014.2 hPa | 0 mm | - | - | - |
| 1777314185 | 29.44° C | 61% | 1014.2 hPa | 0 mm | - | - | - |
| 1777314029 | 29.44° C | 62% | 1014.2 hPa | 0 mm | - | - | - |
| 1777313885 | 29.44° C | 62% | 1014.2 hPa | 0 mm | - | - | - |
| 1777313585 | 29.44° C | 62% | 1014.2 hPa | 0 mm | - | - | - |
| 1777313440 | 29.44° C | 61% | 1014.2 hPa | 0 mm | - | - | - |
* Rain latest hour (hover to see other rain measurements)
** Current wind speed in m/s (hover to see current wind gust speed)